• Join FlightAware (Why Join?)
  • Login
  • US Flag 
08:34AM EDT


 

Airport Tracker/Info


-or-


 

Live Flight TrackerFlight Track Log ✈ LOC5718 ✈ 14-Jun-2013 ✈ KMGE - KANB

Flight Track Log - Related Links

Times and Time Zones

All times are in EDT time to prevent confusion due to time zone crossing. See the LOC5718 flight status page for this flight to view local times or setup timezone preferences in your user account.

Time Position Orientation Groundspeed Altitude Reporting Facility
EDT Latitude Longitude Course Direction KTS MPH feet Rate Location/Type
12:34PM 33.7033 -85.3937 254° West  Level Estimated
12:35PM 33.6914 -85.4423 254° West  Level Estimated
12:36PM 33.6794 -85.4909 254° West  Level Estimated
12:37PM 33.6674 -85.5395 253° West  Level Estimated
12:38PM 33.6554 -85.5881 253° West  Level Estimated
12:39PM 33.6433 -85.6366 253° West  Level Estimated
12:40PM 33.6313 -85.6852 253° West  Level Estimated
12:41PM 33.6192 -85.7337 253° West  Level Estimated
12:42PM 33.6071 -85.7822 253° West  Level Estimated
12:43PM 33.5950 -85.8307 253° West  Level Estimated
12:44PM 33.5882 -85.8581 253° West  Level Estimated
12:45PM 33.5882 -85.8581 196° South  Level Estimated
12:46PM 33.5882 -85.8581 196° South  Level Estimated
12:47PM 33.5882 -85.8581 196° South  Level Estimated
12:48PM 33.5882 -85.8581 196° South  Level Estimated
12:49PM 33.5882 -85.8581 196° South  Level Estimated
12:50PM 33.5882 -85.8581 196° South  Level Estimated
12:51PM 33.5882 -85.8581 196° South  Level Estimated
12:52PM 33.5882 -85.8581 196° South  Level Estimated
12:53PM 33.5882 -85.8581 196° South  Level Estimated
12:54PM 33.5882 -85.8581 196° South  Level Estimated
12:55PM 33.5882 -85.8581 196° South  Level Estimated
12:56PM 33.5882 -85.8581 196° South  Level Estimated
12:57PM 33.5882 -85.8581 196° South  Level Estimated
12:58PM 33.5882 -85.8581 196° South  Level Estimated
12:59PM 33.5882 -85.8581 196° South  Level Estimated